Time;durP1;ratioP1;P1;durP2;ratioP2;P2;SDS_P1;SDS_P2;PMS_P1;PMS_P2;Temp;Humidity;BMP_temperature;BMP_pressure;BME280_temperature;BME280_humidity;BME280_pressure;Samples;Min_cycle;Max_cycle;Signal;HPM_P1;HPM_P2
2023/09/09 00:02:56;;;;;;;11.30;10.90;;;15.70;99.90;;;;;;6203260;23;20195;-83
2023/09/09 00:05:25;;;;;;;11.48;11.07;;;15.70;99.90;;;;;;6204039;23;20219;-82
2023/09/09 00:08:04;;;;;;;11.40;11.00;;;15.60;99.90;;;;;;6204507;23;20262;-82
2023/09/09 00:10:36;;;;;;;11.05;10.73;;;15.50;99.90;;;;;;6203831;23;20250;-82
2023/09/09 00:13:04;;;;;;;11.30;10.90;;;15.50;99.90;;;;;;6208948;23;20199;-82
2023/09/09 00:18:20;;;;;;;10.98;10.68;;;15.40;99.90;;;;;;6201626;23;20238;-82
2023/09/09 00:21:00;;;;;;;11.35;10.95;;;15.30;99.90;;;;;;6202424;23;20212;-82
2023/09/09 00:23:28;;;;;;;11.20;10.80;;;15.20;99.90;;;;;;6202242;23;20196;-82
2023/09/09 00:25:57;;;;;;;10.90;10.60;;;15.20;99.90;;;;;;6203234;23;20196;-82
2023/09/09 00:28:36;;;;;;;11.10;10.75;;;15.10;99.90;;;;;;6203767;23;20196;-82
2023/09/09 00:31:07;;;;;;;11.00;10.70;;;15.10;99.90;;;;;;6203275;23;20207;-82
2023/09/09 00:33:34;;;;;;;10.70;10.40;;;15.10;99.90;;;;;;6203711;23;20214;-82
2023/09/09 00:36:04;;;;;;;10.93;10.63;;;15.10;99.90;;;;;;6203618;23;20211;-82
2023/09/09 00:38:42;;;;;;;10.70;10.40;;;15.10;99.90;;;;;;6203353;23;20206;-82
2023/09/09 00:41:12;;;;;;;10.70;10.40;;;15.10;99.90;;;;;;6203372;23;20274;-82
2023/09/09 00:43:41;;;;;;;10.88;10.57;;;15.10;99.90;;;;;;6202810;23;20298;-82
2023/09/09 00:46:28;;;;;;;10.80;10.50;;;15.00;99.90;;;;;;6203747;23;20199;-82
2023/09/09 00:49:07;;;;;;;10.80;10.50;;;15.00;99.90;;;;;;6207961;23;20210;-83
2023/09/09 00:51:37;;;;;;;10.60;10.30;;;15.00;99.90;;;;;;6210377;22;20196;-82
2023/09/09 00:54:05;;;;;;;10.70;10.40;;;15.00;99.90;;;;;;6208134;23;20192;-83
2023/09/09 00:56:34;;;;;;;10.73;10.43;;;15.00;99.90;;;;;;6208126;23;20203;-83
2023/09/09 00:59:13;;;;;;;10.80;10.50;;;15.00;99.90;;;;;;6213866;23;20202;-82
2023/09/09 01:04:39;;;;;;;10.80;10.50;;;14.90;99.90;;;;;;6209796;23;20171;-82
2023/09/09 01:07:07;;;;;;;11.20;10.80;;;14.90;99.90;;;;;;6210307;23;20215;-82
2023/09/09 01:12:15;;;;;;;10.90;10.60;;;14.90;99.90;;;;;;6201918;23;20239;-82
2023/09/09 01:14:54;;;;;;;10.77;10.48;;;14.90;99.90;;;;;;6206574;23;20191;-82
2023/09/09 01:20:13;;;;;;;10.90;10.60;;;14.70;99.90;;;;;;6203695;23;20188;-82
2023/09/09 01:25:26;;;;;;;10.82;10.52;;;14.60;99.90;;;;;;6202474;23;20729;-82
2023/09/09 01:28:04;;;;;;;11.18;10.80;;;14.50;99.90;;;;;;6203740;23;20227;-83
2023/09/09 01:30:43;;;;;;;10.65;10.35;;;14.50;99.90;;;;;;6204314;23;20188;-83
2023/09/09 01:33:12;;;;;;;10.73;10.43;;;14.40;99.90;;;;;;6203928;23;20203;-83
2023/09/09 01:35:51;;;;;;;10.70;10.40;;;14.40;99.90;;;;;;6203311;23;20239;-82
2023/09/09 01:38:23;;;;;;;10.80;10.50;;;14.30;99.90;;;;;;6203109;23;20195;-82
2023/09/09 01:40:50;;;;;;;10.80;10.50;;;14.20;99.90;;;;;;6203762;23;20243;-82
2023/09/09 01:43:19;;;;;;;10.98;10.68;;;14.20;99.90;;;;;;6203333;23;20227;-81
2023/09/09 01:45:57;;;;;;;10.90;10.60;;;14.20;99.90;;;;;;6203375;23;20256;-82
2023/09/09 01:48:36;;;;;;;10.82;10.52;;;14.10;99.90;;;;;;6203399;23;20201;-82
2023/09/09 01:51:05;;;;;;;10.90;10.60;;;14.10;99.90;;;;;;6175744;23;20226;-83
2023/09/09 01:53:38;;;;;;;10.70;10.40;;;14.10;99.90;;;;;;6203096;23;20250;-82
2023/09/09 01:56:05;;;;;;;10.80;10.50;;;14.10;99.90;;;;;;6203564;23;20239;-82
2023/09/09 01:58:33;;;;;;;10.57;10.27;;;14.00;99.90;;;;;;6202811;23;20227;-82
2023/09/09 02:01:11;;;;;;;10.97;10.67;;;14.00;99.90;;;;;;6211164;22;20191;-83
2023/09/09 02:03:50;;;;;;;11.00;10.60;;;13.90;99.90;;;;;;6216236;22;20213;-83
2023/09/09 02:06:19;;;;;;;10.90;10.60;;;13.90;99.90;;;;;;6204697;23;20196;-82
2023/09/09 02:11:37;;;;;;;10.70;10.40;;;13.80;99.90;;;;;;6202520;23;20202;-82
2023/09/09 02:14:04;;;;;;;10.77;10.47;;;13.80;99.90;;;;;;6201969;22;20211;-82
2023/09/09 02:16:31;;;;;;;11.20;10.80;;;13.80;99.90;;;;;;6205650;23;20199;-82
2023/09/09 02:18:59;;;;;;;10.93;10.60;;;13.80;99.90;;;;;;6205676;23;20203;-81
2023/09/09 02:21:26;;;;;;;10.70;10.40;;;13.70;99.90;;;;;;6206063;23;20213;-81
2023/09/09 02:23:59;;;;;;;10.90;10.60;;;13.70;99.90;;;;;;6205464;23;20210;-81
2023/09/09 02:26:26;;;;;;;10.70;10.40;;;13.70;99.90;;;;;;6210120;23;20195;-81
2023/09/09 02:28:54;;;;;;;10.70;10.40;;;13.60;99.90;;;;;;6209208;23;20223;-82
2023/09/09 02:31:24;;;;;;;10.80;10.50;;;13.60;99.90;;;;;;6208511;23;20226;-81
2023/09/09 02:33:53;;;;;;;10.87;10.57;;;13.60;99.90;;;;;;6207260;23;20208;-81
2023/09/09 02:36:32;;;;;;;10.80;10.50;;;13.60;99.90;;;;;;6206694;23;20240;-81
2023/09/09 02:39:12;;;;;;;10.57;10.27;;;13.60;99.90;;;;;;6207052;23;20214;-81
2023/09/09 02:41:39;;;;;;;11.10;10.70;;;13.60;99.90;;;;;;6208452;23;20200;-81
2023/09/09 02:44:08;;;;;;;10.90;10.60;;;13.60;99.90;;;;;;6206657;23;20226;-81
2023/09/09 02:46:38;;;;;;;10.87;10.57;;;13.60;99.90;;;;;;6204593;23;20196;-81
2023/09/09 02:49:07;;;;;;;10.80;10.50;;;13.50;99.90;;;;;;6205122;23;20192;-80
2023/09/09 02:51:38;;;;;;;10.80;10.50;;;13.50;99.90;;;;;;6205112;23;20211;-81
2023/09/09 02:54:08;;;;;;;11.03;10.63;;;13.50;99.90;;;;;;6205285;23;20200;-81
2023/09/09 02:56:35;;;;;;;10.80;10.50;;;13.50;99.90;;;;;;6207934;23;20267;-81
2023/09/09 02:59:05;;;;;;;10.90;10.60;;;13.50;99.90;;;;;;6208456;23;20214;-82
2023/09/09 03:01:33;;;;;;;10.70;10.40;;;13.50;99.90;;;;;;6210537;23;20203;-81
2023/09/09 03:04:13;;;;;;;10.87;10.57;;;13.40;99.90;;;;;;6210376;23;20208;-81
2023/09/09 03:06:42;;;;;;;10.90;10.60;;;13.40;99.90;;;;;;6210322;23;20286;-81
2023/09/09 03:09:15;;;;;;;10.70;10.40;;;13.40;99.90;;;;;;6211032;23;20203;-81
2023/09/09 03:11:42;;;;;;;10.87;10.57;;;13.40;99.90;;;;;;6210523;23;20192;-82
2023/09/09 03:14:09;;;;;;;10.90;10.60;;;13.40;99.90;;;;;;6208924;23;20223;-82
2023/09/09 03:19:19;;;;;;;11.13;10.73;;;13.40;99.90;;;;;;6207420;23;20196;-82
2023/09/09 03:21:47;;;;;;;10.60;10.30;;;13.40;99.90;;;;;;6208936;23;20200;-81
2023/09/09 03:27:14;;;;;;;10.70;10.40;;;13.30;99.90;;;;;;6206438;23;20243;-81
2023/09/09 03:29:42;;;;;;;10.83;10.53;;;13.30;99.90;;;;;;6207982;23;20192;-81
2023/09/09 03:32:22;;;;;;;10.73;10.43;;;13.30;99.90;;;;;;6206924;23;20203;-82
2023/09/09 03:34:50;;;;;;;10.53;10.23;;;13.30;99.90;;;;;;6207671;23;20212;-81
2023/09/09 03:37:28;;;;;;;10.77;10.47;;;13.30;99.90;;;;;;6207156;23;20207;-82
2023/09/09 03:42:54;;;;;;;10.67;10.37;;;13.20;99.90;;;;;;6203640;23;20207;-81
2023/09/09 03:45:22;;;;;;;10.70;10.40;;;13.20;99.90;;;;;;6205724;23;20195;-82
2023/09/09 03:47:53;;;;;;;10.60;10.30;;;13.10;99.90;;;;;;6205184;23;20211;-81
2023/09/09 03:50:22;;;;;;;10.70;10.40;;;13.10;99.90;;;;;;6204108;23;20215;-82
2023/09/09 03:52:51;;;;;;;10.93;10.60;;;13.10;99.90;;;;;;6206052;23;20199;-82
2023/09/09 03:55:21;;;;;;;10.80;10.50;;;13.10;99.90;;;;;;6205373;23;20195;-81
2023/09/09 03:57:51;;;;;;;10.80;10.50;;;13.10;99.90;;;;;;6205734;23;20188;-81
2023/09/09 04:00:20;;;;;;;11.20;10.80;;;13.10;99.90;;;;;;6206067;23;20195;-81
2023/09/09 04:02:59;;;;;;;11.03;10.63;;;13.00;99.90;;;;;;6205915;23;20207;-81
2023/09/09 04:05:27;;;;;;;10.60;10.30;;;13.00;99.90;;;;;;6205250;23;20192;-82
2023/09/09 04:07:58;;;;;;;10.77;10.47;;;12.90;99.90;;;;;;6206907;23;20200;-81
2023/09/09 04:10:28;;;;;;;10.90;10.60;;;12.80;99.90;;;;;;6206336;23;20199;-81
2023/09/09 04:12:58;;;;;;;11.17;10.77;;;12.70;99.90;;;;;;6206248;23;20239;-81
2023/09/09 04:15:26;;;;;;;10.70;10.40;;;12.70;99.90;;;;;;6205680;23;20247;-81
2023/09/09 04:17:53;;;;;;;10.80;10.50;;;12.60;99.90;;;;;;6206083;23;20196;-81
2023/09/09 04:20:22;;;;;;;10.67;10.37;;;12.60;99.90;;;;;;6205310;23;20192;-81
2023/09/09 04:22:49;;;;;;;10.70;10.40;;;12.60;99.90;;;;;;6203689;23;20204;-81
2023/09/09 04:25:16;;;;;;;11.00;10.60;;;12.60;99.90;;;;;;6204830;23;20187;-83
2023/09/09 04:27:47;;;;;;;11.17;10.77;;;12.60;99.90;;;;;;6205004;23;20254;-83
2023/09/09 04:30:15;;;;;;;11.30;10.90;;;12.60;99.90;;;;;;6203648;23;20191;-83
2023/09/09 04:32:42;;;;;;;11.20;10.80;;;12.50;99.90;;;;;;6202887;23;20230;-83
2023/09/09 04:35:14;;;;;;;11.20;10.80;;;12.50;99.90;;;;;;6202949;23;20239;-83
2023/09/09 04:37:43;;;;;;;11.00;10.60;;;12.50;99.90;;;;;;6203632;23;20230;-83
2023/09/09 04:40:14;;;;;;;10.90;10.50;;;12.50;99.90;;;;;;6204867;23;20211;-83
2023/09/09 04:42:42;;;;;;;10.80;10.50;;;12.50;99.90;;;;;;6203062;23;20204;-82
2023/09/09 04:45:17;;;;;;;11.10;10.70;;;12.50;99.90;;;;;;6204885;23;20191;-82
2023/09/09 04:47:44;;;;;;;11.10;10.70;;;12.50;99.90;;;;;;6207950;23;20209;-84
2023/09/09 04:50:13;;;;;;;11.00;10.60;;;12.50;99.90;;;;;;6213516;23;20196;-80
2023/09/09 04:52:40;;;;;;;10.80;10.50;;;12.50;99.90;;;;;;6211622;23;20199;-84
2023/09/09 04:55:09;;;;;;;10.77;10.47;;;12.50;99.90;;;;;;6205103;23;20274;-85
2023/09/09 04:57:38;;;;;;;10.60;10.30;;;12.50;99.90;;;;;;6202148;23;20195;-85
2023/09/09 05:00:08;;;;;;;10.80;10.50;;;12.60;99.90;;;;;;6203171;23;20199;-87
2023/09/09 05:02:41;;;;;;;10.50;10.20;;;12.50;99.90;;;;;;6203056;23;20230;-85
2023/09/09 05:05:09;;;;;;;10.50;10.20;;;12.60;99.90;;;;;;6202046;23;20200;-87
2023/09/09 05:07:37;;;;;;;10.83;10.53;;;12.60;99.90;;;;;;6201768;23;20199;-86
2023/09/09 05:10:06;;;;;;;10.63;10.33;;;12.60;99.90;;;;;;6203780;23;20192;-85
2023/09/09 05:12:36;;;;;;;10.80;10.50;;;12.60;99.90;;;;;;6209687;23;20212;-84
2023/09/09 05:15:06;;;;;;;10.63;10.33;;;12.60;99.90;;;;;;6201780;23;20215;-86
2023/09/09 05:17:35;;;;;;;10.60;10.30;;;12.60;99.90;;;;;;6201736;23;20219;-85
2023/09/09 05:20:04;;;;;;;10.57;10.27;;;12.60;99.90;;;;;;6202418;23;20196;-84
2023/09/09 05:22:31;;;;;;;10.70;10.40;;;12.60;99.90;;;;;;6201331;23;20211;-80
2023/09/09 05:24:58;;;;;;;10.43;10.13;;;12.60;99.90;;;;;;6202531;23;20297;-80
2023/09/09 05:27:25;;;;;;;10.37;10.07;;;12.70;99.90;;;;;;6201305;23;20199;-80
2023/09/09 05:29:52;;;;;;;10.67;10.37;;;12.70;99.90;;;;;;6203610;23;20231;-80
2023/09/09 05:32:19;;;;;;;10.27;9.97;;;12.70;99.90;;;;;;6198713;23;20214;-80
2023/09/09 05:34:46;;;;;;;10.30;10.00;;;12.80;99.90;;;;;;6203308;23;20716;-80
2023/09/09 05:37:15;;;;;;;10.50;10.20;;;12.90;99.90;;;;;;6200522;23;20203;-83
2023/09/09 05:39:42;;;;;;;10.40;10.10;;;13.00;99.90;;;;;;6201388;23;20203;-83
2023/09/09 05:42:09;;;;;;;10.47;10.17;;;13.00;99.90;;;;;;6201266;23;20278;-84
2023/09/09 05:44:36;;;;;;;10.30;10.00;;;13.10;99.90;;;;;;6202518;23;20204;-82
2023/09/09 05:47:06;;;;;;;10.67;10.37;;;13.10;99.90;;;;;;6204323;23;20247;-82
2023/09/09 05:49:34;;;;;;;10.27;9.97;;;13.20;99.90;;;;;;6200140;23;20200;-82
2023/09/09 05:52:01;;;;;;;10.60;10.30;;;13.30;99.90;;;;;;6195703;23;20196;-82
2023/09/09 05:54:29;;;;;;;10.40;10.10;;;13.40;99.90;;;;;;6196883;23;20208;-81
2023/09/09 05:56:57;;;;;;;10.30;10.00;;;13.50;99.90;;;;;;6198556;23;20191;-82
2023/09/09 05:59:24;;;;;;;10.30;10.00;;;13.60;99.90;;;;;;6197737;23;20605;-82
2023/09/09 06:01:51;;;;;;;10.40;10.10;;;13.70;99.90;;;;;;6201026;23;20255;-82
2023/09/09 06:04:18;;;;;;;10.53;10.23;;;13.80;99.90;;;;;;6203768;23;20227;-82
2023/09/09 06:06:46;;;;;;;10.70;10.40;;;13.80;99.90;;;;;;6202420;23;20215;-82
2023/09/09 06:09:13;;;;;;;10.60;10.30;;;13.80;99.90;;;;;;6202516;23;20199;-83
2023/09/09 06:11:41;;;;;;;10.60;10.30;;;13.80;99.90;;;;;;6203828;23;20218;-83
2023/09/09 06:14:09;;;;;;;10.70;10.40;;;13.70;99.90;;;;;;6203606;23;20223;-83
2023/09/09 06:16:36;;;;;;;10.60;10.30;;;13.60;99.90;;;;;;6204860;23;20196;-83
2023/09/09 06:19:04;;;;;;;10.70;10.40;;;13.70;99.90;;;;;;6204146;23;20286;-83
2023/09/09 06:21:31;;;;;;;10.80;10.50;;;13.80;99.90;;;;;;6203202;23;20192;-83
2023/09/09 06:23:58;;;;;;;10.83;10.53;;;13.90;99.90;;;;;;6203967;23;20210;-83
2023/09/09 06:26:30;;;;;;;10.90;10.60;;;14.00;99.90;;;;;;6204667;23;20207;-83
2023/09/09 06:28:58;;;;;;;11.00;10.70;;;14.10;99.90;;;;;;6204256;23;20198;-83
2023/09/09 06:31:26;;;;;;;11.00;10.70;;;14.20;99.90;;;;;;6203828;23;20218;-83
2023/09/09 06:33:53;;;;;;;10.85;10.55;;;14.20;99.90;;;;;;6204267;23;20200;-83
2023/09/09 06:36:21;;;;;;;11.00;10.70;;;14.30;99.90;;;;;;6204494;23;20200;-83
2023/09/09 06:38:49;;;;;;;10.75;10.45;;;14.40;99.90;;;;;;6209791;23;20218;-83
2023/09/09 06:41:16;;;;;;;10.95;10.65;;;14.50;99.90;;;;;;6206959;23;20203;-83
2023/09/09 06:43:43;;;;;;;10.65;10.35;;;14.60;99.90;;;;;;6206657;23;20199;-83
2023/09/09 06:46:12;;;;;;;10.52;10.23;;;14.70;99.90;;;;;;6207048;23;20192;-83
2023/09/09 06:48:39;;;;;;;10.90;10.60;;;14.80;99.90;;;;;;6207263;23;20202;-83
2023/09/09 06:51:06;;;;;;;10.90;10.60;;;14.90;99.90;;;;;;6206168;23;20204;-83
2023/09/09 06:53:33;;;;;;;10.88;10.57;;;15.10;99.90;;;;;;6206381;23;20207;-83
2023/09/09 06:56:00;;;;;;;11.00;10.70;;;15.30;99.90;;;;;;6206549;23;20231;-84
2023/09/09 06:58:27;;;;;;;11.00;10.70;;;15.40;99.90;;;;;;6206182;23;20207;-83
2023/09/09 07:00:54;;;;;;;11.18;10.82;;;15.50;99.90;;;;;;6205696;23;20231;-83
2023/09/09 07:03:23;;;;;;;10.93;10.63;;;15.70;99.90;;;;;;6205181;23;20236;-83
2023/09/09 07:05:50;;;;;;;11.10;10.80;;;15.80;99.90;;;;;;6205735;23;20207;-83
2023/09/09 07:08:17;;;;;;;11.27;10.88;;;16.00;99.90;;;;;;6205396;23;20226;-83
2023/09/09 07:10:50;;;;;;;10.90;10.60;;;16.10;99.90;;;;;;6205636;23;20199;-84
2023/09/09 07:13:17;;;;;;;10.80;10.50;;;16.20;99.90;;;;;;6206031;23;20230;-84
2023/09/09 07:15:45;;;;;;;11.02;10.73;;;16.30;99.90;;;;;;6205921;23;20194;-84
2023/09/09 07:18:12;;;;;;;10.93;10.63;;;16.40;99.90;;;;;;6208657;23;20194;-83
2023/09/09 07:20:42;;;;;;;11.13;10.82;;;16.60;99.90;;;;;;6205455;23;20199;-84
2023/09/09 07:23:09;;;;;;;11.02;10.73;;;16.80;99.90;;;;;;6207124;23;20196;-84
2023/09/09 07:25:36;;;;;;;11.27;10.90;;;16.90;99.90;;;;;;6206020;23;20200;-84
2023/09/09 07:28:05;;;;;;;11.25;10.88;;;17.00;99.90;;;;;;6205383;23;20230;-84
2023/09/09 07:30:33;;;;;;;11.07;10.77;;;17.20;99.90;;;;;;6205490;23;20191;-85
2023/09/09 07:33:00;;;;;;;11.00;10.70;;;17.20;99.90;;;;;;6206368;23;20255;-83
2023/09/09 07:35:28;;;;;;;11.10;10.80;;;17.40;99.90;;;;;;6205333;23;20198;-84
2023/09/09 07:37:56;;;;;;;10.90;10.60;;;17.60;99.90;;;;;;6205767;23;20207;-84
2023/09/09 07:40:23;;;;;;;10.65;10.35;;;17.70;99.90;;;;;;6206041;23;20196;-84
2023/09/09 07:42:51;;;;;;;10.52;10.23;;;17.90;99.90;;;;;;6205210;23;20201;-84
2023/09/09 07:45:24;;;;;;;10.57;10.27;;;18.00;99.90;;;;;;6205201;23;20180;-84
2023/09/09 07:47:51;;;;;;;10.60;10.30;;;18.10;99.90;;;;;;6206568;23;20208;-84
2023/09/09 07:50:19;;;;;;;10.75;10.45;;;18.30;99.90;;;;;;6206648;23;20207;-84
2023/09/09 07:52:46;;;;;;;10.85;10.55;;;18.50;99.90;;;;;;6206108;23;20200;-84
2023/09/09 07:55:15;;;;;;;10.82;10.52;;;18.70;99.90;;;;;;6207225;23;20212;-84
2023/09/09 07:57:42;;;;;;;10.90;10.60;;;18.80;99.90;;;;;;6208227;23;20223;-84
2023/09/09 08:00:10;;;;;;;10.80;10.50;;;19.00;99.90;;;;;;6207027;23;20192;-84
2023/09/09 08:02:37;;;;;;;10.68;10.38;;;19.20;99.90;;;;;;6207166;23;20218;-84
2023/09/09 08:05:06;;;;;;;10.95;10.65;;;19.40;99.90;;;;;;6207477;23;20655;-84
2023/09/09 08:07:34;;;;;;;11.02;10.73;;;19.50;99.90;;;;;;6181027;23;20283;-84
2023/09/09 08:10:01;;;;;;;11.00;10.70;;;19.70;99.90;;;;;;6206946;23;20207;-84
2023/09/09 08:16:11;;;;;;;11.05;10.75;;;19.90;99.90;;;;;;6172246;23;20200;-91
2023/09/09 08:19:00;;;;;;;10.85;10.55;;;20.10;99.90;;;;;;6172977;23;20226;-91
2023/09/09 08:31:14;;;;;;;10.50;10.20;;;21.10;99.90;;;;;;6146402;23;20291;-91
2023/09/09 08:33:52;;;;;;;10.73;10.43;;;21.40;99.90;;;;;;6173032;23;20256;-91
2023/09/09 08:40:38;;;;;;;10.57;10.27;;;21.70;99.90;;;;;;6174288;23;20240;-91
2023/09/09 08:47:14;;;;;;;10.70;10.40;;;22.30;99.90;;;;;;6180894;23;20188;-91
2023/09/09 08:53:51;;;;;;;10.93;10.63;;;22.80;99.90;;;;;;6175421;23;20272;-91
2023/09/09 08:57:02;;;;;;;10.93;10.63;;;23.10;99.90;;;;;;6178751;23;20200;-91
2023/09/09 09:00:10;;;;;;;10.80;10.50;;;23.50;99.90;;;;;;6177771;23;20199;-92
2023/09/09 10:59:22;;;;;;;;;;;;;;;;;;;;;
2023/09/09 11:02:30;;;;;;;10.90;10.60;;;31.00;99.90;;;;;;6200957;23;20281;-90
2023/09/09 11:19:06;;;;;;;10.85;10.55;;;32.10;99.90;;;;;;6170885;23;20199;-91
2023/09/09 11:24:59;;;;;;;;;;;;;;;;;;;;;
2023/09/09 11:33:50;;;;;;;11.20;10.90;;;33.00;99.90;;;;;;6174608;23;20199;-92
2023/09/09 11:44:11;;;;;;;11.20;10.90;;;32.90;99.90;;;;;;6115596;23;20263;-91
2023/09/09 11:50:23;;;;;;;10.90;10.60;;;32.80;99.90;;;;;;6168592;23;20195;-91
2023/09/09 12:10:40;;;;;;;11.05;10.75;;;34.50;99.90;;;;;;6165461;23;20207;-92
2023/09/09 12:13:49;;;;;;;11.07;10.77;;;34.80;99.90;;;;;;6169651;23;20282;-92
2023/09/09 12:20:45;;;;;;;10.80;10.50;;;34.60;99.90;;;;;;6056495;23;20205;-91
2023/09/09 12:39:13;;;;;;;;;;;;;;;;;;;;;
2023/09/09 12:42:33;;;;;;;10.45;10.15;;;34.90;99.90;;;;;;6169797;23;20195;-92
2023/09/09 13:00:24;;;;;;;10.40;10.10;;;35.40;99.90;;;;;;6168949;23;20192;-92
2023/09/09 13:05:52;;;;;;;10.30;10.00;;;35.60;99.90;;;;;;6170816;23;20211;-92
2023/09/09 13:39:05;;;;;;;10.18;9.88;;;35.10;99.90;;;;;;6164740;23;20196;-92
2023/09/09 13:45:32;;;;;;;10.52;10.23;;;36.10;99.90;;;;;;6168070;23;20239;-92
2023/09/09 13:55:04;;;;;;;10.35;10.05;;;36.60;99.90;;;;;;6176787;23;20204;-92
2023/09/09 13:58:18;;;;;;;10.30;10.00;;;36.40;99.90;;;;;;6175800;23;20200;-92
2023/09/09 14:16:14;;;;;;;10.60;10.30;;;36.70;99.90;;;;;;6183501;23;20211;-94
2023/09/09 14:25:32;;;;;;;;;;;;;;;;;;;;;
2023/09/09 14:43:39;;;;;;;;;;;;;;;;;;;;;
2023/09/09 14:56:14;;;;;;;10.43;10.13;;;37.70;99.90;;;;;;6197909;23;20203;-92
2023/09/09 15:09:06;;;;;;;;;;;;;;;;;;;;;
2023/09/09 15:12:09;;;;;;;;;;;;;;;;;;;;;
2023/09/09 15:23:30;;;;;;;10.43;10.13;;;37.70;99.90;;;;;;6200011;23;20250;-91
2023/09/09 15:30:33;;;;;;;10.25;9.95;;;37.90;99.90;;;;;;6188772;23;20187;-91
2023/09/09 15:55:52;;;;;;;10.05;9.75;;;38.10;99.90;;;;;;6183945;23;20199;-92
2023/09/09 16:02:55;;;;;;;;;;;;;;;;;;;;;
2023/09/09 16:09:23;;;;;;;10.05;9.75;;;38.00;99.90;;;;;;6203031;23;20277;-91
2023/09/09 16:25:52;;;;;;;10.27;9.98;;;38.10;99.90;;;;;;6193232;22;20272;-91
2023/09/09 16:43:04;;;;;;;;;;;;;;;;;;;;;
2023/09/09 20:15:18;;;;;;;10.50;10.20;;;22.00;99.90;;;;;;6192075;22;20234;-84
2023/09/09 20:17:45;;;;;;;10.52;10.23;;;21.90;99.90;;;;;;6205372;23;20197;-83
2023/09/09 20:20:14;;;;;;;10.70;10.40;;;21.80;99.90;;;;;;6205191;23;20195;-84
2023/09/09 20:22:42;;;;;;;10.48;10.18;;;21.70;99.90;;;;;;6205114;23;20200;-83
2023/09/09 20:25:10;;;;;;;10.55;10.25;;;21.70;99.90;;;;;;6206727;23;20268;-84
2023/09/09 20:27:37;;;;;;;10.35;10.05;;;21.70;99.90;;;;;;6205584;23;20203;-83
2023/09/09 20:30:06;;;;;;;10.50;10.20;;;21.60;99.90;;;;;;6206460;23;20243;-83
2023/09/09 20:32:35;;;;;;;10.50;10.20;;;21.60;99.90;;;;;;6205671;23;20223;-83
2023/09/09 20:35:03;;;;;;;10.50;10.20;;;21.50;99.90;;;;;;6205917;23;20278;-83
2023/09/09 20:37:30;;;;;;;10.70;10.40;;;21.50;99.90;;;;;;6205495;23;20251;-83
2023/09/09 20:39:57;;;;;;;10.80;10.50;;;21.50;99.90;;;;;;6205970;23;20207;-82
2023/09/09 20:42:28;;;;;;;10.80;10.50;;;21.40;99.90;;;;;;6205674;23;20212;-83
2023/09/09 20:44:55;;;;;;;10.73;10.43;;;21.30;99.90;;;;;;6205473;23;20235;-83
2023/09/09 20:47:23;;;;;;;10.88;10.57;;;21.30;99.90;;;;;;6205915;23;20196;-83
2023/09/09 20:49:51;;;;;;;10.73;10.43;;;21.20;99.90;;;;;;6205418;23;20192;-83
2023/09/09 20:52:19;;;;;;;10.90;10.60;;;21.20;99.90;;;;;;6205102;23;20192;-83
2023/09/09 20:54:46;;;;;;;11.00;10.70;;;21.10;99.90;;;;;;6205750;23;20207;-83
2023/09/09 20:57:13;;;;;;;10.90;10.60;;;21.10;99.90;;;;;;6205453;23;20200;-83
2023/09/09 20:59:41;;;;;;;10.77;10.48;;;21.00;99.90;;;;;;6205587;23;20191;-83
2023/09/09 21:02:08;;;;;;;11.10;10.80;;;20.90;99.90;;;;;;6204471;23;20203;-83
2023/09/09 21:04:35;;;;;;;10.85;10.55;;;20.90;99.90;;;;;;6204974;23;20203;-83
2023/09/09 21:07:05;;;;;;;10.90;10.60;;;20.80;99.90;;;;;;6205362;23;20219;-83
2023/09/09 21:09:32;;;;;;;11.00;10.70;;;20.80;99.90;;;;;;6205378;23;20187;-83
2023/09/09 21:11:59;;;;;;;11.10;10.80;;;20.70;99.90;;;;;;6205607;23;20222;-83
2023/09/09 21:14:26;;;;;;;11.20;10.90;;;20.60;99.90;;;;;;6204716;23;20207;-83
2023/09/09 21:16:54;;;;;;;11.13;10.82;;;20.60;99.90;;;;;;6206050;23;20271;-83
2023/09/09 21:19:21;;;;;;;11.05;10.75;;;20.50;99.90;;;;;;6205613;23;20195;-83
2023/09/09 21:21:49;;;;;;;11.10;10.80;;;20.50;99.90;;;;;;6204193;23;20183;-84
2023/09/09 21:24:19;;;;;;;11.05;10.75;;;20.40;99.90;;;;;;6205626;23;20204;-83
2023/09/09 21:26:46;;;;;;;10.75;10.45;;;20.40;99.90;;;;;;6204595;23;20207;-83
2023/09/09 21:29:13;;;;;;;10.77;10.48;;;20.40;99.90;;;;;;6205225;23;20246;-82
2023/09/09 21:31:40;;;;;;;10.82;10.52;;;20.30;99.90;;;;;;6205146;23;20204;-83
2023/09/09 21:34:08;;;;;;;11.10;10.80;;;20.30;99.90;;;;;;6204651;23;20254;-82
2023/09/09 21:36:35;;;;;;;11.07;10.77;;;20.20;99.90;;;;;;6204702;23;20206;-83
2023/09/09 21:39:02;;;;;;;10.90;10.60;;;20.10;99.90;;;;;;6205041;23;20199;-82
2023/09/09 21:41:31;;;;;;;11.00;10.70;;;20.10;99.90;;;;;;6204469;23;20204;-82
2023/09/09 21:43:58;;;;;;;11.02;10.73;;;20.10;99.90;;;;;;6204406;23;20199;-82
2023/09/09 21:46:25;;;;;;;11.13;10.82;;;20.00;99.90;;;;;;6205295;23;20207;-82
2023/09/09 21:48:52;;;;;;;11.20;10.90;;;20.00;99.90;;;;;;6204765;23;20203;-82
2023/09/09 21:51:20;;;;;;;11.35;10.95;;;20.00;99.90;;;;;;6205473;23;20203;-83
2023/09/09 21:53:47;;;;;;;11.40;11.00;;;19.90;99.90;;;;;;6205230;23;20203;-83
2023/09/09 21:56:14;;;;;;;11.23;10.88;;;19.90;99.90;;;;;;6205332;23;20199;-84
2023/09/09 21:58:43;;;;;;;11.10;10.80;;;19.80;99.90;;;;;;6204562;23;20199;-82
2023/09/09 22:01:11;;;;;;;11.40;11.00;;;19.80;99.90;;;;;;6204615;23;20195;-82
2023/09/09 22:03:38;;;;;;;11.10;10.80;;;19.70;99.90;;;;;;6205505;23;20234;-82
2023/09/09 22:06:06;;;;;;;10.98;10.68;;;19.70;99.90;;;;;;6205506;23;20199;-83
2023/09/09 22:08:33;;;;;;;11.20;10.85;;;19.70;99.90;;;;;;6205866;23;20192;-82
2023/09/09 22:11:01;;;;;;;11.10;10.80;;;19.70;99.90;;;;;;6205407;23;20196;-82
2023/09/09 22:13:28;;;;;;;10.98;10.68;;;19.70;99.90;;;;;;6205534;23;20203;-82
2023/09/09 22:15:58;;;;;;;11.48;11.07;;;19.60;99.90;;;;;;6205304;23;20199;-82
2023/09/09 22:18:25;;;;;;;11.25;10.88;;;19.60;99.90;;;;;;6205424;23;20196;-82
2023/09/09 22:20:52;;;;;;;11.40;11.00;;;19.50;99.90;;;;;;6204947;23;20199;-82
2023/09/09 22:23:19;;;;;;;11.10;10.80;;;19.50;99.90;;;;;;6205419;23;20928;-82
2023/09/09 22:25:46;;;;;;;11.25;10.88;;;19.50;99.90;;;;;;6205388;23;20242;-83
2023/09/09 22:28:14;;;;;;;10.93;10.63;;;19.40;99.90;;;;;;6207406;23;20192;-82
2023/09/09 22:30:41;;;;;;;10.85;10.55;;;19.40;99.90;;;;;;6205614;23;20219;-83
2023/09/09 22:33:09;;;;;;;11.10;10.80;;;19.40;99.90;;;;;;6206609;23;20191;-82
2023/09/09 22:35:36;;;;;;;10.80;10.50;;;19.30;99.90;;;;;;6205233;23;20203;-82
2023/09/09 22:38:04;;;;;;;10.90;10.60;;;19.30;99.90;;;;;;6205166;23;20206;-82
2023/09/09 22:40:31;;;;;;;10.90;10.60;;;19.30;99.90;;;;;;6204711;23;20198;-83
2023/09/09 22:42:58;;;;;;;11.15;10.85;;;19.20;99.90;;;;;;6205222;23;20195;-83
2023/09/09 22:45:25;;;;;;;10.85;10.55;;;19.20;99.90;;;;;;6205033;23;20215;-83
2023/09/09 22:47:53;;;;;;;11.27;10.90;;;19.20;99.90;;;;;;6205393;23;20227;-83
2023/09/09 22:50:22;;;;;;;11.10;10.80;;;19.20;99.90;;;;;;6205651;23;20192;-83
2023/09/09 22:52:49;;;;;;;10.90;10.60;;;19.10;99.90;;;;;;6205283;23;20204;-83
2023/09/09 22:55:17;;;;;;;10.90;10.60;;;19.10;99.90;;;;;;6204778;23;20204;-83
2023/09/09 22:57:44;;;;;;;11.10;10.80;;;19.10;99.90;;;;;;6205445;23;20202;-83
2023/09/09 23:00:13;;;;;;;10.85;10.55;;;19.00;99.90;;;;;;6205614;23;20204;-83
2023/09/09 23:02:40;;;;;;;10.80;10.50;;;19.00;99.90;;;;;;6205413;23;20231;-83
2023/09/09 23:05:09;;;;;;;10.77;10.48;;;19.00;99.90;;;;;;6205172;23;20199;-83
2023/09/09 23:07:37;;;;;;;10.80;10.50;;;18.90;99.90;;;;;;6205615;23;20191;-83
2023/09/09 23:10:06;;;;;;;10.88;10.57;;;18.80;99.90;;;;;;6206503;23;20196;-83
2023/09/09 23:12:33;;;;;;;10.80;10.50;;;18.80;99.90;;;;;;6204438;23;20238;-83
2023/09/09 23:15:00;;;;;;;10.68;10.38;;;18.80;99.90;;;;;;6205880;23;20211;-83
2023/09/09 23:17:27;;;;;;;10.77;10.48;;;18.70;99.90;;;;;;6205230;23;20226;-83
2023/09/09 23:19:55;;;;;;;10.75;10.45;;;18.70;99.90;;;;;;6204476;23;20206;-83
2023/09/09 23:22:22;;;;;;;10.70;10.40;;;18.60;99.90;;;;;;6211531;23;20198;-83
2023/09/09 23:24:50;;;;;;;10.98;10.68;;;18.60;99.90;;;;;;6211951;23;20211;-83
2023/09/09 23:27:17;;;;;;;10.90;10.60;;;18.60;99.90;;;;;;6210480;23;20202;-83
2023/09/09 23:29:44;;;;;;;10.90;10.60;;;18.50;99.90;;;;;;6206832;23;20188;-83
2023/09/09 23:32:11;;;;;;;10.90;10.60;;;18.50;99.90;;;;;;6207056;23;20203;-83
2023/09/09 23:34:40;;;;;;;10.82;10.52;;;18.50;99.90;;;;;;6205799;23;20207;-83
2023/09/09 23:37:07;;;;;;;10.82;10.52;;;18.40;99.90;;;;;;6206421;23;20192;-83